Terminal Aerodrome Forecast
Issued by NWS

Home | Current Version | Previous Version | Text Only | Print | Product List | Glossary On
Versions: 1 2 3 4 5 6 7 8 9 10 11 12 13 14 15 16 17 18 19 20 21
000
FTUS46 KSEW 210500
TAFCLM
TAF
KCLM 210529Z 2106/2206 VRB04KT P6SM VCSH BKN050 OVC070
      TEMPO 2106/2109 -SHRA OVC035
     FM211600 VRB04KT P6SM VCSH BKN050 OVC070
     FM211900 13005KT P6SM VCSH OVC070
     FM220000 VRB04KT P6SM OVC060
      TEMPO 2202/2206 -RA=

USA.gov is the U.S. government's official web portal to all federal, state and local government web resources and services.